createdAt,value
2022-10-31T00:00:56.770Z,100250.94
2022-10-31T00:02:59.302Z,100254.47
2022-10-31T00:05:01.652Z,100250.00
2022-10-31T00:07:05.778Z,100250.88
2022-10-31T00:09:07.843Z,100250.00
2022-10-31T00:11:11.396Z,100247.22
2022-10-31T00:13:15.346Z,100247.31
2022-10-31T00:15:17.568Z,100245.91
2022-10-31T00:17:19.927Z,100251.91
2022-10-31T00:19:21.925Z,100242.81
2022-10-31T00:21:25.197Z,100247.38
2022-10-31T00:23:27.171Z,100241.13
2022-10-31T00:25:30.595Z,100243.69
2022-10-31T00:27:32.832Z,100246.66
2022-10-31T00:29:35.048Z,100243.94
2022-10-31T00:31:37.078Z,100246.50
2022-10-31T00:33:41.044Z,100242.81
2022-10-31T00:35:42.961Z,100244.88
2022-10-31T00:37:45.109Z,100247.53
2022-10-31T00:39:48.882Z,100251.06
2022-10-31T00:41:53.376Z,100250.25
2022-10-31T00:43:55.701Z,100252.84
2022-10-31T00:45:57.842Z,100254.63
2022-10-31T00:48:00.498Z,100253.66
2022-10-31T00:50:03.273Z,100252.84
2022-10-31T00:52:05.209Z,100255.66
2022-10-31T00:54:07.515Z,100248.63
2022-10-31T00:56:10.495Z,100252.09
2022-10-31T00:58:12.640Z,100256.69
2022-10-31T01:00:15.847Z,100251.34
2022-10-31T01:02:18.206Z,100254.16
2022-10-31T01:04:20.273Z,100256.69
2022-10-31T01:06:22.255Z,100249.44
2022-10-31T01:08:24.440Z,100254.88
2022-10-31T01:10:26.675Z,100253.03
2022-10-31T01:12:29.133Z,100251.13
2022-10-31T01:14:32.585Z,100252.94
2022-10-31T01:16:34.784Z,100250.31
2022-10-31T01:18:40.327Z,100250.31
2022-10-31T01:20:46.391Z,100256.88
2022-10-31T01:22:48.630Z,100260.50
2022-10-31T01:24:50.700Z,100259.63
2022-10-31T01:26:54.828Z,100255.97
2022-10-31T01:29:05.141Z,100253.41
2022-10-31T01:31:10.027Z,100257.00
2022-10-31T01:33:12.330Z,100251.44
2022-10-31T01:35:14.477Z,100258.75
2022-10-31T01:37:16.768Z,100259.63
2022-10-31T01:39:22.126Z,100255.09
2022-10-31T01:41:27.748Z,100246.16
2022-10-31T01:43:54.031Z,100245.59
2022-10-31T01:45:56.239Z,100246.31
2022-10-31T01:47:59.016Z,100240.97
2022-10-31T01:50:05.724Z,100248.16
2022-10-31T01:52:13.929Z,100242.72
2022-10-31T01:54:19.579Z,100241.63
2022-10-31T01:56:22.855Z,100245.38
2022-10-31T01:58:28.905Z,100245.44
2022-10-31T02:00:33.308Z,100247.13
2022-10-31T02:02:37.427Z,100247.91
2022-10-31T02:04:41.395Z,100239.78
2022-10-31T02:06:59.834Z,100238.34
2022-10-31T02:09:04.804Z,100235.28
2022-10-31T02:11:08.515Z,100242.50
2022-10-31T02:13:14.074Z,100239.84
2022-10-31T02:15:22.025Z,100242.72
2022-10-31T02:17:24.863Z,100231.94
2022-10-31T02:19:45.054Z,100235.84
2022-10-31T02:22:12.994Z,100241.28
2022-10-31T02:25:00.111Z,100239.59
2022-10-31T02:27:13.821Z,100230.38
2022-10-31T02:29:27.710Z,100236.72
2022-10-31T02:31:47.663Z,100230.41
2022-10-31T02:33:57.574Z,100236.66
2022-10-31T02:36:28.459Z,100247.50
2022-10-31T02:39:10.951Z,100240.47
2022-10-31T02:41:29.366Z,100245.75
2022-10-31T02:43:58.640Z,100240.41
2022-10-31T02:46:32.050Z,100243.16
2022-10-31T02:48:38.374Z,100245.59
2022-10-31T02:50:46.347Z,100249.34
2022-10-31T02:52:52.871Z,100243.03
2022-10-31T02:54:55.294Z,100240.16
2022-10-31T02:57:07.343Z,100244.06
2022-10-31T02:59:12.229Z,100238.50
2022-10-31T03:01:40.634Z,100245.00
2022-10-31T03:04:08.106Z,100234.09
2022-10-31T03:06:37.470Z,100234.97
2022-10-31T03:08:57.110Z,100243.16
2022-10-31T03:11:05.959Z,100237.91
2022-10-31T03:13:20.817Z,100230.75
2022-10-31T03:15:31.905Z,100229.88
2022-10-31T03:17:54.949Z,100242.47
2022-10-31T03:20:01.645Z,100240.22
2022-10-31T03:22:11.639Z,100235.03
2022-10-31T03:24:15.867Z,100244.06
2022-10-31T03:26:18.861Z,100242.13
2022-10-31T03:28:27.121Z,100247.88
2022-10-31T03:30:30.494Z,100241.44
2022-10-31T03:32:43.149Z,100246.13
2022-10-31T03:34:47.282Z,100242.41
2022-10-31T03:36:55.928Z,100250.28
2022-10-31T03:39:00.138Z,100247.66
2022-10-31T03:41:06.914Z,100245.09
2022-10-31T03:43:20.338Z,100246.84
2022-10-31T03:45:31.452Z,100242.47
2022-10-31T03:47:35.868Z,100238.78
2022-10-31T03:49:38.496Z,100240.72
2022-10-31T03:51:50.359Z,100246.19
2022-10-31T03:54:02.268Z,100245.38
2022-10-31T03:56:14.275Z,100252.72
2022-10-31T03:58:25.449Z,100252.66
2022-10-31T04:00:30.866Z,100250.75
2022-10-31T04:02:36.431Z,100245.22
2022-10-31T04:04:40.621Z,100246.13
2022-10-31T04:06:45.591Z,100245.38
2022-10-31T04:08:55.391Z,100248.25
2022-10-31T04:11:00.664Z,100242.69
2022-10-31T04:13:08.958Z,100240.06
2022-10-31T04:15:26.490Z,100245.50
2022-10-31T04:17:33.382Z,100245.72
2022-10-31T04:19:37.783Z,100250.00
2022-10-31T04:21:40.428Z,100242.69
2022-10-31T04:23:42.914Z,100243.56
2022-10-31T04:26:03.341Z,100242.69
2022-10-31T04:28:08.443Z,100239.97
2022-10-31T04:30:14.035Z,100238.44
2022-10-31T04:32:16.540Z,100243.88
2022-10-31T04:34:18.702Z,100239.41
2022-10-31T04:36:45.902Z,100250.38
2022-10-31T04:38:51.139Z,100246.50
2022-10-31T04:41:07.402Z,100249.13
2022-10-31T04:43:38.173Z,100256.31
2022-10-31T04:45:40.678Z,100250.91
2022-10-31T04:47:44.060Z,100247.28
2022-10-31T04:49:46.356Z,100252.81
2022-10-31T04:51:49.118Z,100242.91
2022-10-31T04:57:51.910Z,100241.22
2022-10-31T04:59:55.196Z,100243.88
2022-10-31T05:01:58.955Z,100246.59
2022-10-31T05:04:16.564Z,100247.91
2022-10-31T05:06:18.659Z,100246.97
2022-10-31T05:08:21.667Z,100237.84
2022-10-31T05:10:29.387Z,100236.13
2022-10-31T05:12:33.877Z,100239.03
2022-10-31T05:14:44.748Z,100235.69
2022-10-31T05:17:15.703Z,100257.72
2022-10-31T05:19:36.099Z,100254.75
2022-10-31T05:21:58.236Z,100253.47
2022-10-31T05:24:00.594Z,100262.50
2022-10-31T05:26:03.553Z,100248.34
2022-10-31T05:28:05.409Z,100240.94
2022-10-31T05:30:09.175Z,100254.88
2022-10-31T05:32:11.739Z,100258.59
2022-10-31T05:34:48.661Z,100276.53
2022-10-31T05:37:25.904Z,100294.56
2022-10-31T05:39:27.811Z,100283.78
2022-10-31T05:41:34.438Z,100281.84
2022-10-31T05:43:51.460Z,100287.16
2022-10-31T05:45:58.485Z,100282.78
2022-10-31T05:48:18.879Z,100284.31
2022-10-31T05:50:43.663Z,100293.34
2022-10-31T05:52:46.582Z,100289.72
2022-10-31T05:54:55.883Z,100285.22
2022-10-31T05:56:57.742Z,100284.47
2022-10-31T05:59:00.329Z,100287.97
2022-10-31T06:01:02.653Z,100298.81
2022-10-31T06:05:30.874Z,100306.94
2022-10-31T06:07:34.998Z,100304.53
2022-10-31T06:09:36.917Z,100310.16
2022-10-31T06:11:38.917Z,100309.00
2022-10-31T06:13:40.764Z,100316.97
2022-10-31T06:15:51.475Z,100316.97
2022-10-31T06:18:05.288Z,100316.66
2022-10-31T06:20:14.555Z,100317.44
2022-10-31T06:22:29.209Z,100322.03
2022-10-31T06:24:31.385Z,100329.84
2022-10-31T06:26:40.709Z,100323.56
2022-10-31T06:28:43.994Z,100329.66
2022-10-31T06:30:57.739Z,100326.06
2022-10-31T06:33:06.481Z,100325.47
2022-10-31T06:35:12.259Z,100320.78
2022-10-31T06:37:16.721Z,100323.50
2022-10-31T06:39:21.855Z,100321.81
2022-10-31T06:41:24.495Z,100330.00
2022-10-31T06:43:27.613Z,100331.63
2022-10-31T06:46:05.870Z,100331.69
2022-10-31T06:48:18.047Z,100326.13
2022-10-31T06:50:46.005Z,100329.94
2022-10-31T06:52:56.657Z,100343.25
2022-10-31T06:54:58.974Z,100334.84
2022-10-31T06:57:00.949Z,100336.44
2022-10-31T06:59:03.992Z,100333.81
2022-10-31T07:01:24.543Z,100342.00
2022-10-31T07:03:26.602Z,100341.28
2022-10-31T07:05:29.763Z,100341.19
2022-10-31T07:07:32.409Z,100338.50
2022-10-31T07:09:34.559Z,100343.78
2022-10-31T07:11:39.960Z,100353.66
2022-10-31T07:13:42.622Z,100352.84
2022-10-31T07:15:46.280Z,100348.47
2022-10-31T07:17:48.846Z,100351.16
2022-10-31T07:19:50.915Z,100349.13
2022-10-31T07:21:53.255Z,100349.94
2022-10-31T07:23:55.193Z,100348.47
2022-10-31T07:26:15.567Z,100346.56
2022-10-31T07:28:23.748Z,100348.25
2022-10-31T07:30:27.564Z,100351.13
2022-10-31T07:32:41.005Z,100342.38
2022-10-31T07:34:46.615Z,100342.69
2022-10-31T07:37:04.764Z,100346.41
2022-10-31T07:39:06.986Z,100334.22
2022-10-31T07:41:10.966Z,100332.59
2022-10-31T07:43:17.141Z,100329.88
2022-10-31T07:45:38.090Z,100317.97
2022-10-31T07:47:59.260Z,100327.03
2022-10-31T07:50:25.495Z,100333.50
2022-10-31T07:52:46.181Z,100343.50
2022-10-31T07:55:19.149Z,100352.78
2022-10-31T07:57:25.141Z,100347.81
2022-10-31T07:59:28.339Z,100342.53
2022-10-31T08:01:30.680Z,100348.91
2022-10-31T08:03:54.357Z,100345.09
2022-10-31T08:06:15.062Z,100346.00
2022-10-31T08:08:22.747Z,100345.34
2022-10-31T08:10:25.738Z,100348.91
2022-10-31T08:12:27.735Z,100343.50
2022-10-31T08:14:29.667Z,100334.22
2022-10-31T08:16:32.841Z,100339.56
2022-10-31T08:18:38.556Z,100347.09
2022-10-31T08:20:44.625Z,100347.59
2022-10-31T08:23:02.564Z,100359.25
2022-10-31T08:25:05.507Z,100356.22
2022-10-31T08:27:07.416Z,100361.50
2022-10-31T08:29:09.356Z,100354.09
2022-10-31T08:31:12.894Z,100358.44
2022-10-31T08:33:19.429Z,100348.66
2022-10-31T08:35:40.706Z,100350.28
2022-10-31T08:38:15.405Z,100344.88
2022-10-31T08:40:18.507Z,100346.56
2022-10-31T08:42:20.556Z,100346.63
2022-10-31T08:44:23.158Z,100349.34
2022-10-31T08:46:25.275Z,100361.94
2022-10-31T08:48:27.589Z,100359.03
2022-10-31T08:50:31.325Z,100355.66
2022-10-31T08:52:58.887Z,100364.06
2022-10-31T08:54:55.859Z,100357.47
2022-10-31T08:57:23.993Z,100360.94
2022-10-31T08:59:26.158Z,100346.41
2022-10-31T09:01:47.293Z,100359.03
2022-10-31T09:03:50.096Z,100354.84
2022-10-31T09:05:56.717Z,100354.09
2022-10-31T09:08:00.677Z,100358.28
2022-10-31T09:10:03.730Z,100359.03
2022-10-31T09:12:09.333Z,100354.13
2022-10-31T09:14:32.992Z,100365.84
2022-10-31T09:16:58.124Z,100366.56
2022-10-31T09:19:11.345Z,100364.75
2022-10-31T09:21:14.191Z,100367.53
2022-10-31T09:23:22.590Z,100362.97
2022-10-31T09:25:24.872Z,100356.38
2022-10-31T09:27:41.650Z,100355.34
2022-10-31T09:29:43.688Z,100368.03
2022-10-31T09:31:47.704Z,100363.63
2022-10-31T09:34:04.226Z,100365.03
2022-10-31T09:36:12.240Z,100366.78
2022-10-31T09:38:20.399Z,100365.75
2022-10-31T09:40:23.362Z,100366.47
2022-10-31T09:42:49.283Z,100377.47
2022-10-31T09:45:04.536Z,100375.38
2022-10-31T09:47:14.496Z,100368.75
2022-10-31T09:49:38.868Z,100370.75
2022-10-31T09:51:52.945Z,100372.56
2022-10-31T09:54:19.604Z,100376.22
2022-10-31T09:56:23.999Z,100372.28
2022-10-31T09:58:30.703Z,100374.81
2022-10-31T10:00:34.391Z,100366.31
2022-10-31T10:02:52.690Z,100368.44
2022-10-31T10:05:09.738Z,100367.34
2022-10-31T10:07:53.533Z,100365.50
2022-10-31T10:10:46.911Z,100370.06
2022-10-31T10:13:38.539Z,100371.75
2022-10-31T10:15:43.790Z,100375.81
2022-10-31T10:18:09.096Z,100375.03
2022-10-31T10:20:27.243Z,100376.06
2022-10-31T10:22:41.116Z,100368.72
2022-10-31T10:24:57.120Z,100367.69
2022-10-31T10:27:26.810Z,100368.88
2022-10-31T10:29:35.722Z,100368.06
2022-10-31T10:31:46.706Z,100367.84
2022-10-31T10:34:11.678Z,100361.59
2022-10-31T10:36:35.819Z,100366.81
2022-10-31T10:38:52.460Z,100351.41
2022-10-31T10:40:55.362Z,100359.09
2022-10-31T10:43:16.094Z,100354.31
2022-10-31T10:45:39.333Z,100351.53
2022-10-31T10:47:45.241Z,100361.44
2022-10-31T10:49:52.713Z,100351.25
2022-10-31T10:54:55.886Z,100352.75
2022-10-31T10:57:25.257Z,100352.75
2022-10-31T10:59:28.279Z,100353.41
2022-10-31T11:01:30.708Z,100353.41
2022-10-31T11:03:36.561Z,100349.97
2022-10-31T11:05:51.274Z,100347.91
2022-10-31T11:07:54.335Z,100347.81
2022-10-31T11:10:09.093Z,100355.19
2022-10-31T11:12:31.609Z,100351.28
2022-10-31T11:14:44.033Z,100344.06
2022-10-31T11:16:48.942Z,100346.53
2022-10-31T11:18:51.005Z,100351.16
2022-10-31T11:20:56.123Z,100341.22
2022-10-31T11:23:21.283Z,100349.44
2022-10-31T11:25:24.720Z,100350.94
2022-10-31T11:27:27.495Z,100346.47
2022-10-31T11:29:29.480Z,100350.94
2022-10-31T11:31:32.152Z,100336.31
2022-10-31T11:33:39.289Z,100343.50
2022-10-31T11:35:41.365Z,100332.50
2022-10-31T11:37:45.689Z,100329.78
2022-10-31T11:39:54.901Z,100331.88
2022-10-31T11:42:06.237Z,100335.28
2022-10-31T11:44:19.118Z,100338.16
2022-10-31T11:46:28.976Z,100330.56
2022-10-31T11:48:31.104Z,100328.66
2022-10-31T11:50:43.587Z,100325.94
2022-10-31T11:52:46.081Z,100327.72
2022-10-31T11:54:55.784Z,100319.56
2022-10-31T11:56:58.231Z,100329.28
2022-10-31T11:59:04.385Z,100323.97
2022-10-31T12:01:06.860Z,100321.25
2022-10-31T12:03:15.267Z,100326.81
2022-10-31T12:05:26.209Z,100317.72
2022-10-31T12:08:09.140Z,100322.19
2022-10-31T12:10:13.067Z,100319.22
2022-10-31T12:12:34.333Z,100318.66
2022-10-31T12:14:42.135Z,100323.78
2022-10-31T12:16:55.349Z,100318.34
2022-10-31T12:19:12.455Z,100319.00
2022-10-31T12:21:24.317Z,100315.47
2022-10-31T12:23:50.694Z,100312.75
2022-10-31T12:26:04.971Z,100317.78
2022-10-31T12:28:31.775Z,100316.03
2022-10-31T12:31:11.281Z,100318.81
2022-10-31T12:33:34.837Z,100320.84
2022-10-31T12:36:14.412Z,100326.00
2022-10-31T12:38:54.988Z,100317.06
2022-10-31T12:41:08.152Z,100318.81
2022-10-31T12:43:28.599Z,100321.53
2022-10-31T12:45:52.184Z,100314.78
2022-10-31T12:48:57.453Z,100314.50
2022-10-31T12:51:21.987Z,100319.94
2022-10-31T12:54:00.810Z,100306.53
2022-10-31T12:56:16.964Z,100312.06
2022-10-31T12:58:25.684Z,100319.06
2022-10-31T13:00:30.465Z,100313.22
2022-10-31T13:02:45.667Z,100306.91
2022-10-31T13:04:59.602Z,100310.75
2022-10-31T13:07:08.864Z,100310.50
2022-10-31T13:09:16.920Z,100311.31
2022-10-31T13:11:32.006Z,100315.00
2022-10-31T13:14:09.368Z,100312.94
2022-10-31T13:16:18.736Z,100312.47
2022-10-31T13:18:34.736Z,100311.72
2022-10-31T13:20:49.357Z,100312.00
2022-10-31T13:23:17.637Z,100312.75
2022-10-31T13:25:29.986Z,100304.78
2022-10-31T13:27:59.247Z,100302.19
2022-10-31T13:30:26.318Z,100319.06
2022-10-31T13:32:38.793Z,100314.53
2022-10-31T13:34:47.060Z,100316.22
2022-10-31T13:37:22.990Z,100314.28
2022-10-31T13:39:40.277Z,100312.19
2022-10-31T13:41:51.064Z,100317.88
2022-10-31T13:44:07.359Z,100309.81
2022-10-31T13:46:25.433Z,100316.84
2022-10-31T13:48:43.367Z,100319.47
2022-10-31T13:51:03.847Z,100312.13
2022-10-31T13:53:17.849Z,100310.22
2022-10-31T13:55:47.176Z,100302.06
2022-10-31T13:57:49.431Z,100307.09
2022-10-31T13:59:58.217Z,100307.31
2022-10-31T14:02:03.564Z,100301.66
2022-10-31T14:04:14.874Z,100300.78
2022-10-31T14:06:48.261Z,100305.66
2022-10-31T14:09:27.853Z,100303.19
2022-10-31T14:11:34.502Z,100308.28
2022-10-31T14:13:45.810Z,100301.19
2022-10-31T14:16:06.266Z,100306.28
2022-10-31T14:18:31.286Z,100308.28
2022-10-31T14:20:43.238Z,100304.44
2022-10-31T14:22:48.356Z,100307.31
2022-10-31T14:24:51.665Z,100310.75
2022-10-31T14:26:59.336Z,100307.25
2022-10-31T14:29:16.912Z,100302.88
2022-10-31T14:31:42.352Z,100311.09
2022-10-31T14:33:45.508Z,100311.88
2022-10-31T14:35:59.706Z,100309.97
2022-10-31T14:38:16.000Z,100302.31
2022-10-31T14:40:37.167Z,100304.59
2022-10-31T14:43:03.847Z,100304.84
2022-10-31T14:45:17.103Z,100309.41
2022-10-31T14:47:37.408Z,100306.00
2022-10-31T14:50:08.312Z,100296.31
2022-10-31T14:52:17.877Z,100309.34
2022-10-31T14:54:28.788Z,100298.81
2022-10-31T14:56:37.217Z,100298.72
2022-10-31T14:58:46.836Z,100303.34
2022-10-31T15:00:50.678Z,100304.97
2022-10-31T15:03:19.763Z,100297.03
2022-10-31T15:05:22.695Z,100291.31
2022-10-31T15:07:26.781Z,100297.44
2022-10-31T15:10:01.012Z,100296.00
2022-10-31T15:12:22.764Z,100293.47
2022-10-31T15:14:31.224Z,100296.25
2022-10-31T15:16:37.054Z,100290.59
2022-10-31T15:18:50.323Z,100286.13
2022-10-31T15:20:54.830Z,100288.66
2022-10-31T15:22:58.453Z,100293.06
2022-10-31T15:25:00.662Z,100293.06
2022-10-31T15:27:05.226Z,100289.47
2022-10-31T15:29:14.610Z,100288.75
2022-10-31T15:31:18.493Z,100293.13
2022-10-31T15:33:37.902Z,100290.50
2022-10-31T15:35:41.305Z,100292.50
2022-10-31T15:37:43.566Z,100296.19
2022-10-31T15:39:47.593Z,100301.53
2022-10-31T15:41:56.147Z,100298.97
2022-10-31T15:44:04.457Z,100291.72
2022-10-31T15:46:11.307Z,100292.50
2022-10-31T15:48:35.616Z,100298.25
2022-10-31T15:50:41.674Z,100300.63
2022-10-31T15:52:49.003Z,100303.50
2022-10-31T15:54:57.174Z,100298.09
2022-10-31T15:56:59.465Z,100304.31
2022-10-31T15:59:03.324Z,100303.63
2022-10-31T16:01:08.006Z,100299.94
2022-10-31T16:03:18.851Z,100302.72
2022-10-31T16:05:21.331Z,100311.88
2022-10-31T16:07:24.366Z,100298.31
2022-10-31T16:09:26.906Z,100305.53
2022-10-31T16:11:40.008Z,100308.47
2022-10-31T16:13:58.425Z,100313.09
2022-10-31T16:16:32.934Z,100314.69
2022-10-31T16:18:27.887Z,100313.91
2022-10-31T16:20:33.111Z,100309.50
2022-10-31T16:22:39.727Z,100312.22
2022-10-31T16:24:56.984Z,100311.41
2022-10-31T16:27:08.169Z,100314.22
2022-10-31T16:29:29.606Z,100311.78
2022-10-31T16:31:40.670Z,100319.03
2022-10-31T16:33:43.321Z,100317.19
2022-10-31T16:35:45.362Z,100314.59
2022-10-31T16:37:47.865Z,100321.97
2022-10-31T16:39:50.349Z,100326.69
2022-10-31T16:45:27.131Z,100340.50
2022-10-31T16:47:29.692Z,100336.91
2022-10-31T16:49:31.611Z,100349.50
2022-10-31T16:51:33.594Z,100338.75
2022-10-31T16:53:35.987Z,100346.06
2022-10-31T16:55:55.220Z,100347.09
2022-10-31T16:57:59.408Z,100348.78
2022-10-31T17:00:01.798Z,100339.19
2022-10-31T17:02:05.487Z,100344.69
2022-10-31T17:04:12.247Z,100346.31
2022-10-31T17:06:15.277Z,100347.25
2022-10-31T17:08:17.667Z,100357.16
2022-10-31T17:10:22.058Z,100345.22
2022-10-31T17:12:27.929Z,100344.22
2022-10-31T17:14:30.467Z,100350.31
2022-10-31T17:16:32.633Z,100345.69
2022-10-31T17:18:34.594Z,100344.72
2022-10-31T17:20:37.201Z,100350.38
2022-10-31T17:24:42.228Z,100349.72
2022-10-31T17:26:44.130Z,100347.91
2022-10-31T17:28:46.721Z,100349.50
2022-10-31T17:30:48.666Z,100342.22
2022-10-31T17:32:51.784Z,100349.72
2022-10-31T17:34:53.456Z,100341.69
2022-10-31T17:36:55.214Z,100358.03
2022-10-31T17:38:57.435Z,100346.25
2022-10-31T17:40:59.329Z,100340.16
2022-10-31T17:43:01.390Z,100348.53
2022-10-31T17:45:04.550Z,100350.25
2022-10-31T17:47:06.767Z,100346.69
2022-10-31T17:49:09.269Z,100344.63
2022-10-31T17:51:11.508Z,100348.38
2022-10-31T17:53:13.228Z,100347.66
2022-10-31T17:55:16.213Z,100345.72
2022-10-31T17:57:18.830Z,100346.69
2022-10-31T17:59:20.861Z,100348.59
2022-10-31T18:01:22.722Z,100348.53
2022-10-31T18:03:25.386Z,100351.50
2022-10-31T18:05:27.299Z,100356.06
2022-10-31T18:07:29.158Z,100354.97
2022-10-31T18:09:31.130Z,100363.75
2022-10-31T18:11:33.290Z,100357.53
2022-10-31T18:13:35.907Z,100347.66
2022-10-31T18:15:40.891Z,100347.00
2022-10-31T18:17:42.834Z,100350.63
2022-10-31T18:19:46.154Z,100350.34
2022-10-31T18:21:48.139Z,100351.38
2022-10-31T18:23:54.918Z,100354.38
2022-10-31T18:25:57.487Z,100351.38
2022-10-31T18:27:59.513Z,100348.75
2022-10-31T18:30:01.554Z,100350.78
2022-10-31T18:32:09.075Z,100357.19
2022-10-31T18:34:11.107Z,100347.28
2022-10-31T18:36:13.487Z,100350.09
2022-10-31T18:38:15.273Z,100353.66
2022-10-31T18:40:17.593Z,100349.28
2022-10-31T18:42:19.553Z,100355.41
2022-10-31T18:44:21.570Z,100350.88
2022-10-31T18:46:23.284Z,100357.97
2022-10-31T18:48:25.217Z,100356.06
2022-10-31T18:50:27.346Z,100351.66
2022-10-31T18:52:32.366Z,100356.06
2022-10-31T18:54:34.475Z,100354.22
2022-10-31T18:56:38.002Z,100352.41
2022-10-31T19:02:40.298Z,100359.91
2022-10-31T19:04:42.213Z,100359.00
2022-10-31T19:06:44.036Z,100350.31
2022-10-31T19:08:46.038Z,100358.94
2022-10-31T19:10:48.261Z,100353.88
2022-10-31T19:12:50.182Z,100358.13
2022-10-31T19:18:46.542Z,100357.25
2022-10-31T19:20:48.447Z,100352.78
2022-10-31T19:22:53.133Z,100355.34
2022-10-31T19:24:54.898Z,100355.25
2022-10-31T19:26:56.753Z,100355.19
2022-10-31T19:28:58.801Z,100352.47
2022-10-31T19:31:03.978Z,100351.97
2022-10-31T19:33:06.070Z,100348.03
2022-10-31T19:35:09.406Z,100349.84
2022-10-31T19:37:11.569Z,100352.53
2022-10-31T19:39:13.526Z,100352.53
2022-10-31T19:41:26.264Z,100351.81
2022-10-31T19:43:28.679Z,100357.03
2022-10-31T19:48:53.029Z,100359.91
2022-10-31T19:51:01.813Z,100358.28
2022-10-31T19:53:06.272Z,100354.47
2022-10-31T19:55:08.659Z,100345.69
2022-10-31T19:57:10.773Z,100350.38
2022-10-31T19:59:12.959Z,100354.25
2022-10-31T20:01:16.476Z,100357.94
2022-10-31T20:03:21.596Z,100350.94
2022-10-31T20:05:24.602Z,100353.59
2022-10-31T20:07:26.643Z,100361.56
2022-10-31T20:09:28.782Z,100354.41
2022-10-31T20:11:31.438Z,100351.53
2022-10-31T20:13:33.980Z,100353.22
2022-10-31T20:15:36.115Z,100358.50
2022-10-31T20:17:38.885Z,100358.72
2022-10-31T20:19:41.320Z,100355.06
2022-10-31T20:21:43.411Z,100359.31
2022-10-31T20:23:47.296Z,100358.44
2022-10-31T20:25:50.238Z,100354.84
2022-10-31T20:27:52.199Z,100358.00
2022-10-31T20:29:54.258Z,100360.91
2022-10-31T20:31:57.449Z,100353.59
2022-10-31T20:34:01.932Z,100356.53
2022-10-31T20:36:05.546Z,100364.81
2022-10-31T20:38:08.643Z,100367.47
2022-10-31T20:40:11.368Z,100361.13
2022-10-31T20:42:13.816Z,100359.09
2022-10-31T20:44:16.214Z,100357.19
2022-10-31T20:46:21.299Z,100359.97
2022-10-31T20:48:24.857Z,100356.91
2022-10-31T20:50:26.998Z,100356.66
2022-10-31T20:52:28.957Z,100354.19
2022-10-31T20:54:33.305Z,100361.31
2022-10-31T20:56:35.415Z,100363.84
2022-10-31T20:58:39.027Z,100361.16
2022-10-31T21:00:40.856Z,100354.84
2022-10-31T21:02:43.861Z,100364.00
2022-10-31T21:04:45.804Z,100363.09
2022-10-31T21:06:49.581Z,100358.97
2022-10-31T21:08:52.526Z,100358.56
2022-10-31T21:10:55.101Z,100355.06
2022-10-31T21:12:57.253Z,100353.38
2022-10-31T21:14:59.395Z,100350.59
2022-10-31T21:17:01.527Z,100353.91
2022-10-31T21:19:05.091Z,100358.06
2022-10-31T21:21:13.080Z,100352.13
2022-10-31T21:23:15.106Z,100355.06
2022-10-31T21:25:18.543Z,100348.84
2022-10-31T21:27:20.610Z,100350.66
2022-10-31T21:29:22.549Z,100348.91
2022-10-31T21:32:14.321Z,100343.91
2022-10-31T21:34:16.707Z,100342.88
2022-10-31T21:36:19.083Z,100349.94
2022-10-31T21:38:21.124Z,100342.63
2022-10-31T21:40:23.123Z,100335.31
2022-10-31T21:42:25.164Z,100335.16
2022-10-31T21:44:27.200Z,100336.97
2022-10-31T21:46:31.365Z,100343.28
2022-10-31T21:48:34.327Z,100337.69
2022-10-31T21:50:36.339Z,100335.00
2022-10-31T21:52:38.648Z,100332.13
2022-10-31T21:54:40.535Z,100340.19
2022-10-31T21:56:59.301Z,100336.75
2022-10-31T21:59:02.100Z,100332.78
2022-10-31T22:01:29.746Z,100330.28
2022-10-31T22:03:36.176Z,100330.28
2022-10-31T22:05:38.379Z,100324.88
2022-10-31T22:07:40.433Z,100327.16
2022-10-31T22:09:47.330Z,100322.63
2022-10-31T22:11:49.630Z,100327.22
2022-10-31T22:13:54.274Z,100324.59
2022-10-31T22:16:00.912Z,100311.69
2022-10-31T22:18:05.545Z,100324.06
2022-10-31T22:20:08.664Z,100321.47
2022-10-31T22:22:13.196Z,100321.81
2022-10-31T22:24:16.920Z,100320.66
2022-10-31T22:26:21.941Z,100317.84
2022-10-31T22:28:24.041Z,100313.38
2022-10-31T22:30:25.940Z,100315.00
2022-10-31T22:32:28.394Z,100318.50
2022-10-31T22:34:32.725Z,100307.66
2022-10-31T22:36:35.059Z,100315.06
2022-10-31T22:38:40.407Z,100317.13
2022-10-31T22:40:42.554Z,100316.41
2022-10-31T22:42:44.538Z,100310.88
2022-10-31T22:44:46.649Z,100310.31
2022-10-31T22:46:49.140Z,100306.66
2022-10-31T22:49:00.181Z,100311.59
2022-10-31T22:51:07.403Z,100310.78
2022-10-31T22:53:13.522Z,100304.34
2022-10-31T22:55:17.490Z,100309.03
2022-10-31T22:57:19.768Z,100314.78
2022-10-31T22:59:21.870Z,100303.91
2022-10-31T23:01:27.136Z,100305.78
2022-10-31T23:03:29.439Z,100314.75
2022-10-31T23:05:31.476Z,100310.50
2022-10-31T23:07:33.550Z,100307.41
2022-10-31T23:09:35.992Z,100297.47
2022-10-31T23:11:39.885Z,100301.03
2022-10-31T23:14:00.510Z,100306.75
2022-10-31T23:16:05.609Z,100312.28
2022-10-31T23:18:14.587Z,100305.94
2022-10-31T23:20:26.455Z,100299.09
2022-10-31T23:22:28.429Z,100301.75
2022-10-31T23:24:41.740Z,100297.78
2022-10-31T23:33:40.912Z,100292.50
2022-10-31T23:35:43.886Z,100296.97
2022-10-31T23:37:45.978Z,100288.03
2022-10-31T23:39:50.801Z,100299.91
2022-10-31T23:41:56.075Z,100295.66
2022-10-31T23:43:58.322Z,100293.81
2022-10-31T23:46:00.309Z,100289.63
2022-10-31T23:48:02.603Z,100300.91
2022-10-31T23:50:05.320Z,100301.78
2022-10-31T23:52:07.495Z,100298.88
2022-10-31T23:54:09.783Z,100298.59
2022-10-31T23:56:12.436Z,100296.97
2022-10-31T23:58:15.879Z,100298.00
